createdAt,value
2022-08-17T00:02:21.241Z,28.25
2022-08-17T00:05:33.064Z,31.00
2022-08-17T00:08:39.483Z,28.40
2022-08-17T00:12:40.799Z,16.20
2022-08-17T00:15:10.722Z,25.00
2022-08-17T00:19:02.140Z,26.50
2022-08-17T00:22:14.744Z,33.00
2022-08-17T00:25:08.306Z,26.40
2022-08-17T00:28:12.381Z,30.00
2022-08-17T00:31:15.930Z,29.00
2022-08-17T00:34:19.814Z,27.00
2022-08-17T00:37:24.465Z,26.00
2022-08-17T00:40:40.636Z,26.60
2022-08-17T00:43:50.393Z,24.20
2022-08-17T00:46:53.649Z,29.00
2022-08-17T00:49:57.141Z,26.60
2022-08-17T00:53:20.359Z,24.80
2022-08-17T00:56:29.695Z,30.00
2022-08-17T00:59:38.451Z,29.00
2022-08-17T01:02:44.290Z,27.00
2022-08-17T01:05:51.654Z,27.00
2022-08-17T01:08:59.495Z,29.60
2022-08-17T01:12:03.340Z,23.00
2022-08-17T01:15:07.171Z,22.20
2022-08-17T01:18:13.670Z,27.40
2022-08-17T01:21:24.602Z,33.20
2022-08-17T01:24:29.262Z,27.50
2022-08-17T01:27:32.901Z,30.00
2022-08-17T01:30:58.274Z,30.00
2022-08-17T01:34:01.859Z,28.50
2022-08-17T01:37:05.607Z,28.75
2022-08-17T01:40:19.522Z,27.00
2022-08-17T01:43:27.033Z,28.25
2022-08-17T01:46:34.239Z,26.60
2022-08-17T01:49:37.572Z,23.80
2022-08-17T01:52:41.599Z,28.00
2022-08-17T01:55:50.839Z,29.20
2022-08-17T01:58:54.774Z,24.00
2022-08-17T02:01:58.125Z,31.25
2022-08-17T02:05:01.562Z,29.00
2022-08-17T02:08:07.686Z,27.80
2022-08-17T02:11:25.347Z,28.00
2022-08-17T02:14:28.559Z,35.25
2022-08-17T02:17:32.000Z,29.00
2022-08-17T02:20:42.044Z,24.00
2022-08-17T02:23:49.810Z,30.75
2022-08-17T02:26:54.867Z,27.00
2022-08-17T02:29:58.404Z,28.20
2022-08-17T02:33:04.317Z,27.75
2022-08-17T02:36:10.406Z,25.00
2022-08-17T02:39:14.182Z,28.80
2022-08-17T02:42:18.945Z,20.00
2022-08-17T02:45:24.779Z,24.40
2022-08-17T02:48:31.280Z,24.33
2022-08-17T02:51:36.447Z,28.00
2022-08-17T02:54:42.267Z,28.60
2022-08-17T02:57:48.344Z,28.00
2022-08-17T03:00:51.699Z,27.00
2022-08-17T03:03:55.140Z,26.00
2022-08-17T03:06:58.437Z,32.00
2022-08-17T03:10:01.679Z,25.00
2022-08-17T03:13:06.619Z,27.00
2022-08-17T03:16:10.282Z,27.00
2022-08-17T03:19:13.711Z,29.00
2022-08-17T03:22:35.473Z,24.00
2022-08-17T03:25:44.149Z,24.00
2022-08-17T03:28:48.847Z,22.00
2022-08-17T03:31:52.856Z,29.00
2022-08-17T03:35:00.521Z,28.00
2022-08-17T03:38:05.350Z,27.50
2022-08-17T03:41:08.997Z,24.20
2022-08-17T03:44:13.829Z,25.25
2022-08-17T03:47:34.437Z,25.20
2022-08-17T03:50:55.188Z,22.50
2022-08-17T03:54:17.683Z,22.25
2022-08-17T03:57:22.487Z,28.00
2022-08-17T04:00:27.773Z,27.25
2022-08-17T04:03:31.490Z,29.50
2022-08-17T04:06:35.124Z,19.75
2022-08-17T04:09:38.397Z,32.75
2022-08-17T04:12:48.582Z,25.25
2022-08-17T04:15:53.611Z,29.00
2022-08-17T04:18:57.090Z,32.60
2022-08-17T04:22:03.735Z,35.40
2022-08-17T04:25:11.560Z,31.60
2022-08-17T04:28:16.501Z,32.00
2022-08-17T04:31:21.375Z,29.60
2022-08-17T04:34:25.224Z,22.50
2022-08-17T04:37:28.505Z,30.20
2022-08-17T04:40:49.607Z,31.00
2022-08-17T04:43:56.134Z,25.20
2022-08-17T04:47:00.786Z,32.20
2022-08-17T04:50:04.555Z,33.60
2022-08-17T04:53:07.763Z,30.60
2022-08-17T04:56:16.700Z,28.25
2022-08-17T04:59:22.723Z,36.00
2022-08-17T05:02:27.530Z,30.40
2022-08-17T05:05:33.953Z,23.60
2022-08-17T05:08:37.809Z,28.60
2022-08-17T05:11:44.942Z,26.60
2022-08-17T05:14:48.407Z,23.00
2022-08-17T05:17:53.484Z,25.50
2022-08-17T05:20:57.656Z,24.00
2022-08-17T05:24:01.407Z,23.60
2022-08-17T05:27:16.769Z,26.40
2022-08-17T05:30:23.679Z,26.60
2022-08-17T05:33:30.624Z,26.60
2022-08-17T05:36:42.576Z,32.80
2022-08-17T05:39:47.845Z,22.40
2022-08-17T05:42:51.582Z,30.00
2022-08-17T05:46:03.353Z,29.25
2022-08-17T05:49:09.165Z,20.00
2022-08-17T05:52:24.048Z,29.40
2022-08-17T05:55:36.873Z,23.20
2022-08-17T05:58:52.525Z,26.25
2022-08-17T06:02:04.057Z,23.75
2022-08-17T06:05:18.724Z,32.00
2022-08-17T06:08:28.739Z,26.60
2022-08-17T06:11:38.147Z,27.20
2022-08-17T06:14:59.528Z,26.60
2022-08-17T06:18:06.707Z,31.75
2022-08-17T06:21:17.055Z,30.00
2022-08-17T06:24:28.684Z,28.60
2022-08-17T06:27:38.353Z,31.50
2022-08-17T06:31:00.589Z,29.20
2022-08-17T06:34:09.773Z,29.75
2022-08-17T06:37:37.682Z,29.75
2022-08-17T06:41:00.416Z,26.00
2022-08-17T06:44:43.563Z,28.00
2022-08-17T06:47:54.348Z,27.20
2022-08-17T06:51:04.537Z,29.60
2022-08-17T06:54:13.135Z,26.00
2022-08-17T06:57:23.367Z,29.00
2022-08-17T07:00:33.663Z,27.60
2022-08-17T07:03:45.471Z,28.40
2022-08-17T07:06:54.583Z,27.00
2022-08-17T07:10:02.152Z,24.00
2022-08-17T07:13:23.736Z,30.00
2022-08-17T07:16:33.071Z,29.00
2022-08-17T07:19:40.742Z,27.60
2022-08-17T07:22:57.396Z,22.40
2022-08-17T07:26:07.671Z,27.75
2022-08-17T07:29:16.161Z,29.60
2022-08-17T07:32:24.234Z,26.67
2022-08-17T07:35:41.378Z,24.00
2022-08-17T07:38:58.656Z,27.75
2022-08-17T07:42:05.839Z,27.00
2022-08-17T07:45:31.599Z,30.00
2022-08-17T07:48:37.392Z,26.40
2022-08-17T07:51:54.416Z,24.80
2022-08-17T07:55:00.534Z,25.00
2022-08-17T07:58:05.750Z,28.00
2022-08-17T08:01:12.883Z,29.00
2022-08-17T08:04:43.191Z,24.00
2022-08-17T08:07:54.587Z,24.00
2022-08-17T08:11:08.501Z,25.75
2022-08-17T08:14:34.160Z,28.00
2022-08-17T08:17:50.514Z,25.00
2022-08-17T08:21:00.829Z,29.00
2022-08-17T08:24:31.004Z,27.00
2022-08-17T08:27:48.173Z,26.00
2022-08-17T08:31:06.615Z,25.20
2022-08-17T08:34:58.867Z,25.25
2022-08-17T08:37:52.764Z,25.40
2022-08-17T08:41:09.231Z,24.40
2022-08-17T08:45:00.435Z,24.00
2022-08-17T08:48:22.939Z,26.00
2022-08-17T08:51:48.357Z,25.50
2022-08-17T08:55:01.430Z,23.75
2022-08-17T08:58:32.212Z,24.40
2022-08-17T09:01:53.887Z,24.80
2022-08-17T09:05:16.005Z,26.00
2022-08-17T09:08:32.290Z,23.00
2022-08-17T09:12:02.963Z,22.00
2022-08-17T09:15:14.714Z,25.40
2022-08-17T09:19:03.147Z,22.60
2022-08-17T09:21:54.341Z,23.25
2022-08-17T09:25:04.374Z,17.00
2022-08-17T09:28:16.760Z,23.00
2022-08-17T09:31:24.074Z,23.50
2022-08-17T09:34:34.508Z,24.25
2022-08-17T09:37:52.532Z,25.50
2022-08-17T09:41:02.777Z,22.60
2022-08-17T09:44:22.685Z,21.80
2022-08-17T09:47:32.846Z,25.00
2022-08-17T09:51:05.423Z,25.00
2022-08-17T09:54:38.131Z,24.60
2022-08-17T09:57:55.685Z,24.50
2022-08-17T10:01:18.275Z,23.40
2022-08-17T10:04:40.998Z,24.00
2022-08-17T10:07:56.202Z,27.40
2022-08-17T10:11:12.572Z,25.00
2022-08-17T10:14:37.628Z,24.60
2022-08-17T10:17:59.433Z,27.00
2022-08-17T10:21:24.713Z,25.40
2022-08-17T10:25:23.262Z,26.40
2022-08-17T10:28:28.919Z,25.20
2022-08-17T10:31:39.809Z,26.25
2022-08-17T10:34:57.762Z,23.75
2022-08-17T10:38:33.502Z,25.20
2022-08-17T10:41:43.841Z,24.00
2022-08-17T10:44:56.535Z,23.00
2022-08-17T10:48:06.143Z,24.40
2022-08-17T10:51:12.859Z,22.00
2022-08-17T10:54:38.633Z,23.00
2022-08-17T10:57:45.345Z,21.80
2022-08-17T11:01:12.885Z,23.75
2022-08-17T11:04:34.152Z,21.60
2022-08-17T11:08:01.711Z,23.00
2022-08-17T11:11:36.205Z,20.60
2022-08-17T11:15:00.484Z,21.00
2022-08-17T11:18:27.666Z,24.00
2022-08-17T11:21:53.029Z,21.00
2022-08-17T11:24:58.624Z,23.00
2022-08-17T11:28:08.781Z,21.40
2022-08-17T11:31:39.117Z,22.00
2022-08-17T11:34:45.023Z,23.75
2022-08-17T11:37:59.083Z,21.00
2022-08-17T11:41:21.605Z,19.20
2022-08-17T11:44:41.609Z,20.00
2022-08-17T11:48:28.807Z,21.40
2022-08-17T11:52:12.255Z,19.50
2022-08-17T11:55:50.726Z,18.50
2022-08-17T11:58:54.043Z,20.50
2022-08-17T12:01:57.618Z,19.00
2022-08-17T12:05:25.739Z,18.50
2022-08-17T12:08:34.039Z,17.60
2022-08-17T12:12:04.626Z,18.40
2022-08-17T12:15:11.061Z,19.00
2022-08-17T12:18:21.599Z,20.00
2022-08-17T12:21:45.175Z,21.25
2022-08-17T12:25:00.636Z,20.00
2022-08-17T12:28:06.719Z,20.00
2022-08-17T12:31:17.434Z,19.40
2022-08-17T12:34:24.354Z,18.60
2022-08-17T12:37:32.264Z,21.00
2022-08-17T12:40:37.402Z,18.25
2022-08-17T12:43:40.963Z,18.60
2022-08-17T12:46:51.719Z,19.00
2022-08-17T12:50:06.201Z,18.75
2022-08-17T12:53:14.086Z,18.20
2022-08-17T12:56:19.143Z,16.00
2022-08-17T12:59:30.406Z,17.50
2022-08-17T13:02:44.294Z,16.00
2022-08-17T13:05:57.979Z,17.20
2022-08-17T13:09:10.811Z,16.40
2022-08-17T13:12:15.624Z,19.00
2022-08-17T13:15:23.575Z,16.20
2022-08-17T13:18:40.865Z,16.20
2022-08-17T13:21:48.598Z,18.00
2022-08-17T13:24:54.780Z,17.00
2022-08-17T13:27:59.668Z,18.40
2022-08-17T13:31:21.789Z,16.40
2022-08-17T13:35:06.539Z,17.00
2022-08-17T13:38:06.654Z,13.80
2022-08-17T13:41:34.683Z,15.40
2022-08-17T13:44:40.830Z,18.00
2022-08-17T13:47:44.127Z,18.00
2022-08-17T13:50:50.868Z,16.25
2022-08-17T13:54:01.295Z,16.00
2022-08-17T13:57:07.532Z,15.20
2022-08-17T14:00:20.965Z,15.00
2022-08-17T14:03:24.925Z,20.00
2022-08-17T14:06:52.403Z,17.00
2022-08-17T14:09:59.331Z,16.00
2022-08-17T14:13:02.757Z,16.00
2022-08-17T14:16:07.985Z,14.50
2022-08-17T14:19:12.777Z,16.20
2022-08-17T14:22:23.716Z,16.00
2022-08-17T14:25:29.863Z,16.75
2022-08-17T14:28:33.146Z,16.20
2022-08-17T14:31:40.959Z,17.00
2022-08-17T14:34:46.155Z,15.00
2022-08-17T14:37:49.809Z,15.00
2022-08-17T14:40:53.494Z,15.40
2022-08-17T14:43:56.573Z,16.33
2022-08-17T14:47:01.034Z,16.00
2022-08-17T14:50:05.634Z,15.00
2022-08-17T14:53:16.088Z,15.00
2022-08-17T14:56:19.167Z,15.60
2022-08-17T14:59:22.642Z,17.40
2022-08-17T15:02:29.807Z,15.20
2022-08-17T15:05:36.911Z,17.00
2022-08-17T15:08:40.022Z,17.40
2022-08-17T15:11:43.938Z,18.00
2022-08-17T15:14:47.208Z,18.00
2022-08-17T15:17:52.354Z,18.00
2022-08-17T15:20:55.945Z,19.60
2022-08-17T15:23:59.580Z,19.40
2022-08-17T15:27:02.792Z,17.00
2022-08-17T15:30:07.844Z,17.00
2022-08-17T15:33:16.187Z,16.00
2022-08-17T15:36:19.510Z,17.00
2022-08-17T15:39:22.676Z,17.75
2022-08-17T15:42:26.770Z,17.80
2022-08-17T15:45:30.846Z,19.60
2022-08-17T15:48:42.316Z,17.60
2022-08-17T15:51:45.671Z,17.20
2022-08-17T15:54:51.679Z,16.00
2022-08-17T15:57:54.763Z,22.60
2022-08-17T16:01:14.086Z,20.00
2022-08-17T16:04:29.936Z,16.60
2022-08-17T16:07:34.574Z,18.60
2022-08-17T16:10:38.129Z,20.75
2022-08-17T16:13:41.704Z,21.00
2022-08-17T16:16:52.399Z,19.20
2022-08-17T16:19:57.621Z,19.40
2022-08-17T16:23:00.999Z,22.40
2022-08-17T16:26:04.094Z,25.00
2022-08-17T16:29:08.350Z,22.60
2022-08-17T16:32:14.591Z,21.60
2022-08-17T16:35:21.262Z,17.40
2022-08-17T16:38:24.770Z,20.00
2022-08-17T16:41:46.237Z,21.20
2022-08-17T16:44:49.349Z,23.25
2022-08-17T16:47:52.784Z,21.00
2022-08-17T16:51:03.216Z,20.40
2022-08-17T16:54:08.547Z,23.00
2022-08-17T16:57:11.645Z,23.00
2022-08-17T17:00:17.132Z,28.20
2022-08-17T17:03:25.826Z,26.75
2022-08-17T17:06:43.825Z,27.00
2022-08-17T17:09:48.906Z,25.20
2022-08-17T17:13:02.162Z,26.00
2022-08-17T17:16:15.811Z,25.00
2022-08-17T17:19:35.314Z,23.20
2022-08-17T17:22:48.190Z,24.00
2022-08-17T17:26:01.302Z,25.20
2022-08-17T17:29:47.317Z,25.50
2022-08-17T17:32:56.466Z,30.00
2022-08-17T17:36:01.918Z,30.00
2022-08-17T17:39:16.532Z,28.60
2022-08-17T17:42:23.126Z,32.80
2022-08-17T17:45:32.032Z,27.60
2022-08-17T17:48:35.719Z,27.50
2022-08-17T17:52:06.624Z,28.00
2022-08-17T17:55:24.794Z,32.00
2022-08-17T17:58:42.744Z,30.20
2022-08-17T18:01:55.009Z,29.00
2022-08-17T18:05:09.808Z,31.00
2022-08-17T18:08:32.184Z,32.00
2022-08-17T18:12:03.430Z,29.00
2022-08-17T18:15:29.584Z,27.50
2022-08-17T18:18:38.645Z,26.50
2022-08-17T18:21:46.254Z,25.00
2022-08-17T18:24:55.847Z,30.00
2022-08-17T18:28:00.487Z,30.00
2022-08-17T18:31:08.010Z,33.00
2022-08-17T18:34:48.706Z,32.00
2022-08-17T18:37:55.565Z,32.00
2022-08-17T18:41:07.173Z,30.60
2022-08-17T18:44:25.940Z,30.00
2022-08-17T18:47:30.358Z,30.40
2022-08-17T18:50:39.662Z,30.00
2022-08-17T18:53:42.835Z,29.40
2022-08-17T18:56:52.528Z,28.00
2022-08-17T18:59:58.906Z,28.00
2022-08-17T19:03:06.604Z,31.00
2022-08-17T19:06:26.568Z,29.25
2022-08-17T19:09:34.243Z,30.00
2022-08-17T19:12:43.163Z,30.00
2022-08-17T19:16:11.726Z,27.60
2022-08-17T19:19:22.225Z,26.00
2022-08-17T19:22:31.233Z,28.67
2022-08-17T19:25:39.135Z,28.00
2022-08-17T19:28:48.734Z,28.00
2022-08-17T19:31:56.634Z,27.20
2022-08-17T19:35:01.082Z,30.00
2022-08-17T19:38:13.458Z,27.80
2022-08-17T19:41:31.888Z,25.80
2022-08-17T19:44:56.311Z,27.80
2022-08-17T19:48:13.576Z,28.40
2022-08-17T19:51:20.807Z,28.75
2022-08-17T19:54:31.144Z,29.00
2022-08-17T19:57:48.929Z,27.20
2022-08-17T20:00:54.461Z,29.60
2022-08-17T20:04:08.844Z,30.00
2022-08-17T20:07:16.463Z,26.00
2022-08-17T20:10:29.896Z,27.60
2022-08-17T20:13:40.427Z,26.75
2022-08-17T20:16:44.217Z,27.00
2022-08-17T20:19:53.359Z,26.80
2022-08-17T20:23:05.735Z,26.75
2022-08-17T20:26:19.755Z,29.00
2022-08-17T20:29:39.749Z,27.00
2022-08-17T20:32:53.165Z,29.00
2022-08-17T20:36:15.393Z,27.00
2022-08-17T20:39:34.830Z,25.00
2022-08-17T20:42:38.434Z,30.00
2022-08-17T20:46:12.974Z,31.00
2022-08-17T20:49:47.796Z,26.80
2022-08-17T20:52:56.211Z,28.60
2022-08-17T20:55:59.710Z,28.00
2022-08-17T20:59:03.125Z,28.60
2022-08-17T21:02:18.304Z,28.00
2022-08-17T21:05:34.240Z,26.00
2022-08-17T21:08:45.872Z,30.00
2022-08-17T21:12:11.583Z,31.20
2022-08-17T21:15:31.605Z,31.00
2022-08-17T21:18:44.915Z,32.00
2022-08-17T21:22:01.933Z,30.00
2022-08-17T21:25:22.061Z,28.00
2022-08-17T21:28:37.309Z,31.20
2022-08-17T21:32:24.155Z,33.00
2022-08-17T21:35:47.281Z,30.00
2022-08-17T21:38:59.462Z,30.25
2022-08-17T21:42:07.968Z,29.40
2022-08-17T21:45:18.915Z,30.50
2022-08-17T21:48:25.084Z,32.00
2022-08-17T21:51:30.851Z,30.00
2022-08-17T21:54:38.908Z,29.60
2022-08-17T21:57:52.906Z,32.60
2022-08-17T22:01:23.748Z,33.00
2022-08-17T22:04:30.282Z,32.00
2022-08-17T22:07:40.972Z,31.50
2022-08-17T22:10:48.499Z,32.75
2022-08-17T22:14:00.661Z,33.00
2022-08-17T22:17:21.139Z,34.00
2022-08-17T22:20:24.736Z,34.00
2022-08-17T22:23:49.413Z,30.20
2022-08-17T22:27:07.071Z,33.40
2022-08-17T22:30:19.769Z,32.00
2022-08-17T22:33:35.898Z,32.00
2022-08-17T22:36:40.496Z,32.40
2022-08-17T22:39:43.826Z,32.00
2022-08-17T22:42:48.780Z,36.00
2022-08-17T22:45:55.782Z,33.00
2022-08-17T22:49:00.535Z,32.00
2022-08-17T22:52:21.835Z,32.00
2022-08-17T22:55:44.453Z,32.60
2022-08-17T22:59:10.958Z,33.00
2022-08-17T23:02:23.381Z,35.00
2022-08-17T23:05:26.918Z,30.50
2022-08-17T23:08:31.280Z,33.00
2022-08-17T23:11:47.764Z,32.00
2022-08-17T23:15:00.684Z,32.00
2022-08-17T23:18:05.758Z,32.00
2022-08-17T23:21:09.057Z,30.00
2022-08-17T23:24:22.526Z,31.20
2022-08-17T23:27:26.555Z,32.00
2022-08-17T23:30:30.668Z,32.50
2022-08-17T23:33:35.724Z,32.00
2022-08-17T23:36:39.316Z,31.50
2022-08-17T23:39:44.742Z,32.00
2022-08-17T23:42:48.216Z,32.50
2022-08-17T23:45:51.762Z,32.00
2022-08-17T23:48:56.705Z,34.75
2022-08-17T23:52:02.269Z,32.20
2022-08-17T23:55:06.873Z,32.00
2022-08-17T23:58:10.155Z,32.00
